sensor_id;sensor_type;location;lat;lon;timestamp;temperature;humidity
37432;DHT22;23292;51.300;6.252;2022-11-20T00:01:17;2.30;99.90
37432;DHT22;23292;51.300;6.252;2022-11-20T00:03:44;2.20;99.90
37432;DHT22;23292;51.300;6.252;2022-11-20T00:06:14;2.30;99.90
37432;DHT22;23292;51.300;6.252;2022-11-20T00:08:41;2.30;99.90
37432;DHT22;23292;51.300;6.252;2022-11-20T00:11:14;2.30;99.90
37432;DHT22;23292;51.300;6.252;2022-11-20T00:13:43;2.30;99.90
37432;DHT22;23292;51.300;6.252;2022-11-20T00:16:13;2.30;99.90
37432;DHT22;23292;51.300;6.252;2022-11-20T00:18:40;2.30;99.90
37432;DHT22;23292;51.300;6.252;2022-11-20T00:21:19;2.20;99.90
37432;DHT22;23292;51.300;6.252;2022-11-20T00:23:48;2.20;99.90
37432;DHT22;23292;51.300;6.252;2022-11-20T00:26:17;2.20;99.90
37432;DHT22;23292;51.300;6.252;2022-11-20T00:28:49;2.00;99.90
37432;DHT22;23292;51.300;6.252;2022-11-20T00:31:17;2.20;99.90
37432;DHT22;23292;51.300;6.252;2022-11-20T00:33:44;2.30;99.90
37432;DHT22;23292;51.300;6.252;2022-11-20T00:36:19;2.20;99.90
37432;DHT22;23292;51.300;6.252;2022-11-20T00:38:46;2.20;99.90
37432;DHT22;23292;51.300;6.252;2022-11-20T00:41:15;2.10;99.90
37432;DHT22;23292;51.300;6.252;2022-11-20T00:43:42;2.10;99.90
37432;DHT22;23292;51.300;6.252;2022-11-20T00:46:13;2.10;99.90
37432;DHT22;23292;51.300;6.252;2022-11-20T00:48:40;2.00;99.90
37432;DHT22;23292;51.300;6.252;2022-11-20T00:51:07;1.90;99.90
37432;DHT22;23292;51.300;6.252;2022-11-20T00:53:34;1.90;99.90
37432;DHT22;23292;51.300;6.252;2022-11-20T00:56:07;1.90;99.90
37432;DHT22;23292;51.300;6.252;2022-11-20T00:58:36;1.90;99.90
37432;DHT22;23292;51.300;6.252;2022-11-20T01:03:36;2.00;99.90
37432;DHT22;23292;51.300;6.252;2022-11-20T01:06:09;2.10;99.90
37432;DHT22;23292;51.300;6.252;2022-11-20T01:08:37;2.20;99.90
37432;DHT22;23292;51.300;6.252;2022-11-20T01:11:07;2.20;99.90
37432;DHT22;23292;51.300;6.252;2022-11-20T01:13:35;2.00;99.90
37432;DHT22;23292;51.300;6.252;2022-11-20T01:16:14;1.90;99.90
37432;DHT22;23292;51.300;6.252;2022-11-20T01:18:43;1.70;99.90
37432;DHT22;23292;51.300;6.252;2022-11-20T01:21:13;1.50;99.90
37432;DHT22;23292;51.300;6.252;2022-11-20T01:23:42;1.30;99.90
37432;DHT22;23292;51.300;6.252;2022-11-20T01:26:12;1.10;99.90
37432;DHT22;23292;51.300;6.252;2022-11-20T01:28:40;0.90;99.90
37432;DHT22;23292;51.300;6.252;2022-11-20T01:33:49;0.60;99.90
37432;DHT22;23292;51.300;6.252;2022-11-20T01:36:18;0.50;99.90
37432;DHT22;23292;51.300;6.252;2022-11-20T01:38:45;0.40;99.90
37432;DHT22;23292;51.300;6.252;2022-11-20T01:41:14;0.40;99.90
37432;DHT22;23292;51.300;6.252;2022-11-20T01:44:02;0.40;99.90
37432;DHT22;23292;51.300;6.252;2022-11-20T01:46:31;0.30;99.90
37432;DHT22;23292;51.300;6.252;2022-11-20T01:49:23;0.20;99.90
37432;DHT22;23292;51.300;6.252;2022-11-20T01:51:55;0.10;99.90
37432;DHT22;23292;51.300;6.252;2022-11-20T01:54:28;0.00;99.90
37432;DHT22;23292;51.300;6.252;2022-11-20T01:56:57;0.00;99.90
37432;DHT22;23292;51.300;6.252;2022-11-20T01:59:26;-0.20;99.90
37432;DHT22;23292;51.300;6.252;2022-11-20T02:01:54;-0.10;99.90
37432;DHT22;23292;51.300;6.252;2022-11-20T02:04:23;-0.30;99.90
37432;DHT22;23292;51.300;6.252;2022-11-20T02:06:59;-0.30;99.90
37432;DHT22;23292;51.300;6.252;2022-11-20T02:09:27;-0.30;99.90
37432;DHT22;23292;51.300;6.252;2022-11-20T02:11:55;-0.40;99.90
37432;DHT22;23292;51.300;6.252;2022-11-20T02:14:22;-0.40;99.90
37432;DHT22;23292;51.300;6.252;2022-11-20T02:16:49;-0.40;99.90
37432;DHT22;23292;51.300;6.252;2022-11-20T02:19:30;-0.50;99.90
37432;DHT22;23292;51.300;6.252;2022-11-20T02:22:21;-0.50;99.90
37432;DHT22;23292;51.300;6.252;2022-11-20T02:24:52;-0.60;99.90
37432;DHT22;23292;51.300;6.252;2022-11-20T02:27:18;-0.60;99.90
37432;DHT22;23292;51.300;6.252;2022-11-20T02:29:55;-0.70;99.90
37432;DHT22;23292;51.300;6.252;2022-11-20T02:32:26;-0.70;99.90
37432;DHT22;23292;51.300;6.252;2022-11-20T02:34:53;-0.70;99.90
37432;DHT22;23292;51.300;6.252;2022-11-20T02:37:21;-0.70;99.90
37432;DHT22;23292;51.300;6.252;2022-11-20T02:39:49;-0.70;99.90
37432;DHT22;23292;51.300;6.252;2022-11-20T02:42:16;-0.80;99.90
37432;DHT22;23292;51.300;6.252;2022-11-20T02:44:43;-0.80;99.90
37432;DHT22;23292;51.300;6.252;2022-11-20T02:47:10;-0.70;99.90
37432;DHT22;23292;51.300;6.252;2022-11-20T02:49:36;-0.80;99.90
37432;DHT22;23292;51.300;6.252;2022-11-20T02:52:03;-0.80;99.90
37432;DHT22;23292;51.300;6.252;2022-11-20T02:54:30;-0.90;99.90
37432;DHT22;23292;51.300;6.252;2022-11-20T02:56:57;-0.90;99.90
37432;DHT22;23292;51.300;6.252;2022-11-20T02:59:23;-0.80;99.90
37432;DHT22;23292;51.300;6.252;2022-11-20T03:01:50;-0.90;99.90
37432;DHT22;23292;51.300;6.252;2022-11-20T03:04:17;-1.00;99.90
37432;DHT22;23292;51.300;6.252;2022-11-20T03:06:43;-1.00;99.90
37432;DHT22;23292;51.300;6.252;2022-11-20T03:09:10;-0.90;99.90
37432;DHT22;23292;51.300;6.252;2022-11-20T03:11:37;-0.70;99.90
37432;DHT22;23292;51.300;6.252;2022-11-20T03:14:04;-0.60;99.90
37432;DHT22;23292;51.300;6.252;2022-11-20T03:16:32;-0.50;99.90
37432;DHT22;23292;51.300;6.252;2022-11-20T03:18:59;-0.30;99.90
37432;DHT22;23292;51.300;6.252;2022-11-20T03:21:26;0.00;99.90
37432;DHT22;23292;51.300;6.252;2022-11-20T03:23:54;0.00;99.90
37432;DHT22;23292;51.300;6.252;2022-11-20T03:26:23;0.10;99.90
37432;DHT22;23292;51.300;6.252;2022-11-20T03:29:02;0.10;99.90
37432;DHT22;23292;51.300;6.252;2022-11-20T03:31:40;0.30;99.90
37432;DHT22;23292;51.300;6.252;2022-11-20T03:34:08;0.50;99.90
37432;DHT22;23292;51.300;6.252;2022-11-20T03:36:38;0.50;99.90
37432;DHT22;23292;51.300;6.252;2022-11-20T03:39:05;0.50;99.90
37432;DHT22;23292;51.300;6.252;2022-11-20T03:41:36;0.50;99.90
37432;DHT22;23292;51.300;6.252;2022-11-20T03:44:05;0.60;99.90
37432;DHT22;23292;51.300;6.252;2022-11-20T03:46:32;0.60;99.90
37432;DHT22;23292;51.300;6.252;2022-11-20T03:48:58;0.70;99.90
37432;DHT22;23292;51.300;6.252;2022-11-20T03:51:33;0.70;99.90
37432;DHT22;23292;51.300;6.252;2022-11-20T03:54:02;0.80;99.90
37432;DHT22;23292;51.300;6.252;2022-11-20T03:56:32;0.80;99.90
37432;DHT22;23292;51.300;6.252;2022-11-20T03:58:59;0.70;99.90
37432;DHT22;23292;51.300;6.252;2022-11-20T04:01:29;0.80;99.90
37432;DHT22;23292;51.300;6.252;2022-11-20T04:03:56;0.80;99.90
37432;DHT22;23292;51.300;6.252;2022-11-20T04:06:25;0.70;99.90
37432;DHT22;23292;51.300;6.252;2022-11-20T04:08:57;0.70;99.90
37432;DHT22;23292;51.300;6.252;2022-11-20T04:11:28;0.70;99.90
37432;DHT22;23292;51.300;6.252;2022-11-20T04:14:04;0.80;99.90
37432;DHT22;23292;51.300;6.252;2022-11-20T04:16:32;0.90;99.90
37432;DHT22;23292;51.300;6.252;2022-11-20T04:19:02;0.90;99.90
37432;DHT22;23292;51.300;6.252;2022-11-20T04:21:29;1.00;99.90
37432;DHT22;23292;51.300;6.252;2022-11-20T04:23:56;1.00;99.90
37432;DHT22;23292;51.300;6.252;2022-11-20T04:26:24;0.90;99.90
37432;DHT22;23292;51.300;6.252;2022-11-20T04:28:52;0.80;99.90
37432;DHT22;23292;51.300;6.252;2022-11-20T04:31:21;0.80;99.90
37432;DHT22;23292;51.300;6.252;2022-11-20T04:33:48;0.90;99.90
37432;DHT22;23292;51.300;6.252;2022-11-20T04:36:17;1.10;99.90
37432;DHT22;23292;51.300;6.252;2022-11-20T04:38:45;1.10;99.90
37432;DHT22;23292;51.300;6.252;2022-11-20T04:41:18;1.00;99.90
37432;DHT22;23292;51.300;6.252;2022-11-20T04:43:49;0.90;99.90
37432;DHT22;23292;51.300;6.252;2022-11-20T04:46:17;0.90;99.90
37432;DHT22;23292;51.300;6.252;2022-11-20T04:48:44;1.00;99.90
37432;DHT22;23292;51.300;6.252;2022-11-20T04:51:11;0.90;99.90
37432;DHT22;23292;51.300;6.252;2022-11-20T04:53:38;0.90;99.90
37432;DHT22;23292;51.300;6.252;2022-11-20T04:56:07;0.80;99.90
37432;DHT22;23292;51.300;6.252;2022-11-20T04:58:34;0.80;99.90
37432;DHT22;23292;51.300;6.252;2022-11-20T05:01:22;0.90;99.90
37432;DHT22;23292;51.300;6.252;2022-11-20T05:03:49;1.00;99.90
37432;DHT22;23292;51.300;6.252;2022-11-20T05:06:19;0.90;99.90
37432;DHT22;23292;51.300;6.252;2022-11-20T05:08:46;1.00;99.90
37432;DHT22;23292;51.300;6.252;2022-11-20T05:11:18;1.00;99.90
37432;DHT22;23292;51.300;6.252;2022-11-20T05:13:45;1.00;99.90
37432;DHT22;23292;51.300;6.252;2022-11-20T05:16:15;1.00;99.90
37432;DHT22;23292;51.300;6.252;2022-11-20T05:18:42;1.00;99.90
37432;DHT22;23292;51.300;6.252;2022-11-20T05:21:10;1.00;99.90
37432;DHT22;23292;51.300;6.252;2022-11-20T05:23:37;1.00;99.90
37432;DHT22;23292;51.300;6.252;2022-11-20T05:26:06;1.10;99.90
37432;DHT22;23292;51.300;6.252;2022-11-20T05:28:33;1.10;99.90
37432;DHT22;23292;51.300;6.252;2022-11-20T05:31:23;1.10;99.90
37432;DHT22;23292;51.300;6.252;2022-11-20T05:33:55;1.10;99.90
37432;DHT22;23292;51.300;6.252;2022-11-20T05:36:22;1.10;99.90
37432;DHT22;23292;51.300;6.252;2022-11-20T05:38:49;1.20;99.90
37432;DHT22;23292;51.300;6.252;2022-11-20T05:41:19;1.20;99.90
37432;DHT22;23292;51.300;6.252;2022-11-20T05:43:48;1.30;99.90
37432;DHT22;23292;51.300;6.252;2022-11-20T05:46:17;1.30;99.90
37432;DHT22;23292;51.300;6.252;2022-11-20T05:48:47;1.30;99.90
37432;DHT22;23292;51.300;6.252;2022-11-20T05:51:16;1.30;99.90
37432;DHT22;23292;51.300;6.252;2022-11-20T05:53:43;1.30;99.90
37432;DHT22;23292;51.300;6.252;2022-11-20T05:56:19;1.20;99.90
37432;DHT22;23292;51.300;6.252;2022-11-20T05:58:46;1.30;99.90
37432;DHT22;23292;51.300;6.252;2022-11-20T06:01:15;1.30;99.90
37432;DHT22;23292;51.300;6.252;2022-11-20T06:03:42;1.20;99.90
37432;DHT22;23292;51.300;6.252;2022-11-20T06:06:13;1.20;99.90
37432;DHT22;23292;51.300;6.252;2022-11-20T06:08:40;1.20;99.90
37432;DHT22;23292;51.300;6.252;2022-11-20T06:11:09;1.10;99.90
37432;DHT22;23292;51.300;6.252;2022-11-20T06:13:36;1.00;99.90
37432;DHT22;23292;51.300;6.252;2022-11-20T06:16:09;1.00;99.90
37432;DHT22;23292;51.300;6.252;2022-11-20T06:18:35;1.00;99.90
37432;DHT22;23292;51.300;6.252;2022-11-20T06:21:13;0.90;99.90
37432;DHT22;23292;51.300;6.252;2022-11-20T06:23:41;0.80;99.90
37432;DHT22;23292;51.300;6.252;2022-11-20T06:26:28;0.90;99.90
37432;DHT22;23292;51.300;6.252;2022-11-20T06:28:56;0.90;99.90
37432;DHT22;23292;51.300;6.252;2022-11-20T06:31:24;0.90;99.90
37432;DHT22;23292;51.300;6.252;2022-11-20T06:33:52;0.90;99.90
37432;DHT22;23292;51.300;6.252;2022-11-20T06:36:21;1.00;99.90
37432;DHT22;23292;51.300;6.252;2022-11-20T06:38:48;1.00;99.90
37432;DHT22;23292;51.300;6.252;2022-11-20T06:41:17;1.10;99.90
37432;DHT22;23292;51.300;6.252;2022-11-20T06:43:44;1.10;99.90
37432;DHT22;23292;51.300;6.252;2022-11-20T06:46:12;1.30;99.90
37432;DHT22;23292;51.300;6.252;2022-11-20T06:48:40;1.30;99.90
37432;DHT22;23292;51.300;6.252;2022-11-20T06:51:07;1.20;99.90
37432;DHT22;23292;51.300;6.252;2022-11-20T06:53:34;1.30;99.90
37432;DHT22;23292;51.300;6.252;2022-11-20T06:56:01;1.40;99.90
37432;DHT22;23292;51.300;6.252;2022-11-20T06:58:30;1.40;99.90
37432;DHT22;23292;51.300;6.252;2022-11-20T07:01:02;1.50;99.90
37432;DHT22;23292;51.300;6.252;2022-11-20T07:03:29;1.50;99.90
37432;DHT22;23292;51.300;6.252;2022-11-20T07:05:57;1.50;99.90
37432;DHT22;23292;51.300;6.252;2022-11-20T07:08:24;1.50;99.90
37432;DHT22;23292;51.300;6.252;2022-11-20T07:10:51;1.60;99.90
37432;DHT22;23292;51.300;6.252;2022-11-20T07:13:18;1.60;99.90
37432;DHT22;23292;51.300;6.252;2022-11-20T07:15:45;1.70;99.90
37432;DHT22;23292;51.300;6.252;2022-11-20T07:18:12;1.70;99.90
37432;DHT22;23292;51.300;6.252;2022-11-20T07:20:38;1.70;99.90
37432;DHT22;23292;51.300;6.252;2022-11-20T07:23:05;1.60;99.90
37432;DHT22;23292;51.300;6.252;2022-11-20T07:25:32;1.60;99.90
37432;DHT22;23292;51.300;6.252;2022-11-20T07:28:00;1.60;99.90
37432;DHT22;23292;51.300;6.252;2022-11-20T07:30:27;1.60;99.90
37432;DHT22;23292;51.300;6.252;2022-11-20T07:32:55;1.70;99.90
37432;DHT22;23292;51.300;6.252;2022-11-20T07:35:25;1.70;99.90
37432;DHT22;23292;51.300;6.252;2022-11-20T07:37:52;1.70;99.90
37432;DHT22;23292;51.300;6.252;2022-11-20T07:40:19;1.70;99.90
37432;DHT22;23292;51.300;6.252;2022-11-20T07:42:54;1.90;99.90
37432;DHT22;23292;51.300;6.252;2022-11-20T07:45:22;1.90;99.90
37432;DHT22;23292;51.300;6.252;2022-11-20T07:47:49;1.90;99.90
37432;DHT22;23292;51.300;6.252;2022-11-20T07:50:16;1.80;99.90
37432;DHT22;23292;51.300;6.252;2022-11-20T07:52:43;1.90;99.90
37432;DHT22;23292;51.300;6.252;2022-11-20T07:55:10;2.00;99.90
37432;DHT22;23292;51.300;6.252;2022-11-20T07:57:38;2.00;99.90
37432;DHT22;23292;51.300;6.252;2022-11-20T08:00:06;2.10;99.90
37432;DHT22;23292;51.300;6.252;2022-11-20T08:02:38;2.10;99.90
37432;DHT22;23292;51.300;6.252;2022-11-20T08:05:06;2.20;99.90
37432;DHT22;23292;51.300;6.252;2022-11-20T08:07:41;2.20;99.90
37432;DHT22;23292;51.300;6.252;2022-11-20T08:10:11;2.40;99.90
37432;DHT22;23292;51.300;6.252;2022-11-20T08:12:48;2.50;99.90
37432;DHT22;23292;51.300;6.252;2022-11-20T08:15:34;2.40;99.90
37432;DHT22;23292;51.300;6.252;2022-11-20T08:18:03;2.40;99.90
37432;DHT22;23292;51.300;6.252;2022-11-20T08:20:50;2.50;99.90
37432;DHT22;23292;51.300;6.252;2022-11-20T08:23:17;2.50;99.90
37432;DHT22;23292;51.300;6.252;2022-11-20T08:25:48;2.50;99.90
37432;DHT22;23292;51.300;6.252;2022-11-20T08:28:15;2.50;99.90
37432;DHT22;23292;51.300;6.252;2022-11-20T08:30:47;2.60;99.90
37432;DHT22;23292;51.300;6.252;2022-11-20T08:33:14;2.70;99.90
37432;DHT22;23292;51.300;6.252;2022-11-20T08:35:40;2.80;99.90
37432;DHT22;23292;51.300;6.252;2022-11-20T08:38:08;2.90;99.90
37432;DHT22;23292;51.300;6.252;2022-11-20T08:40:35;2.90;99.90
37432;DHT22;23292;51.300;6.252;2022-11-20T08:43:02;3.10;99.90
37432;DHT22;23292;51.300;6.252;2022-11-20T08:45:29;3.10;99.90
37432;DHT22;23292;51.300;6.252;2022-11-20T08:48:01;3.20;99.90
37432;DHT22;23292;51.300;6.252;2022-11-20T08:50:29;3.10;99.90
37432;DHT22;23292;51.300;6.252;2022-11-20T08:53:04;3.20;99.90
37432;DHT22;23292;51.300;6.252;2022-11-20T08:55:31;3.30;99.90
37432;DHT22;23292;51.300;6.252;2022-11-20T08:57:58;3.30;99.90
37432;DHT22;23292;51.300;6.252;2022-11-20T09:00:29;3.30;99.90
37432;DHT22;23292;51.300;6.252;2022-11-20T09:02:55;3.40;99.90
37432;DHT22;23292;51.300;6.252;2022-11-20T09:05:22;3.40;99.90
37432;DHT22;23292;51.300;6.252;2022-11-20T09:07:49;3.40;99.90
37432;DHT22;23292;51.300;6.252;2022-11-20T09:10:15;3.50;99.90
37432;DHT22;23292;51.300;6.252;2022-11-20T09:12:50;3.60;99.90
37432;DHT22;23292;51.300;6.252;2022-11-20T09:15:18;3.70;99.90
37432;DHT22;23292;51.300;6.252;2022-11-20T09:18:05;3.80;99.90
37432;DHT22;23292;51.300;6.252;2022-11-20T09:20:32;3.80;99.90
37432;DHT22;23292;51.300;6.252;2022-11-20T09:22:59;3.90;99.90
37432;DHT22;23292;51.300;6.252;2022-11-20T09:25:25;3.90;99.90
37432;DHT22;23292;51.300;6.252;2022-11-20T09:27:57;3.90;99.90
37432;DHT22;23292;51.300;6.252;2022-11-20T09:30:24;3.90;99.90
37432;DHT22;23292;51.300;6.252;2022-11-20T09:32:51;3.80;99.90
37432;DHT22;23292;51.300;6.252;2022-11-20T09:35:18;3.80;99.90
37432;DHT22;23292;51.300;6.252;2022-11-20T09:37:45;3.80;99.90
37432;DHT22;23292;51.300;6.252;2022-11-20T09:40:24;3.80;99.90
37432;DHT22;23292;51.300;6.252;2022-11-20T09:42:57;3.80;99.90
37432;DHT22;23292;51.300;6.252;2022-11-20T09:50:48;3.80;99.90
37432;DHT22;23292;51.300;6.252;2022-11-20T09:56:17;3.90;99.90
37432;DHT22;23292;51.300;6.252;2022-11-20T09:58:50;3.90;99.90
37432;DHT22;23292;51.300;6.252;2022-11-20T10:01:28;3.90;99.90
37432;DHT22;23292;51.300;6.252;2022-11-20T10:04:08;4.00;99.90
37432;DHT22;23292;51.300;6.252;2022-11-20T10:06:50;4.00;99.90
37432;DHT22;23292;51.300;6.252;2022-11-20T10:09:52;4.00;99.90
37432;DHT22;23292;51.300;6.252;2022-11-20T10:18:18;4.10;99.90
37432;DHT22;23292;51.300;6.252;2022-11-20T10:26:02;4.20;99.90
37432;DHT22;23292;51.300;6.252;2022-11-20T10:31:37;4.60;99.90
37432;DHT22;23292;51.300;6.252;2022-11-20T10:34:33;4.80;99.90
37432;DHT22;23292;51.300;6.252;2022-11-20T10:37:15;4.70;99.90
37432;DHT22;23292;51.300;6.252;2022-11-20T10:39:45;4.80;99.90
37432;DHT22;23292;51.300;6.252;2022-11-20T10:42:31;4.90;99.90
37432;DHT22;23292;51.300;6.252;2022-11-20T10:45:00;4.90;99.90
37432;DHT22;23292;51.300;6.252;2022-11-20T10:47:31;4.90;99.90
37432;DHT22;23292;51.300;6.252;2022-11-20T10:50:03;4.90;99.90
37432;DHT22;23292;51.300;6.252;2022-11-20T10:57:59;4.80;99.90
37432;DHT22;23292;51.300;6.252;2022-11-20T11:00:31;4.80;99.90
37432;DHT22;23292;51.300;6.252;2022-11-20T11:02:58;4.80;99.90
37432;DHT22;23292;51.300;6.252;2022-11-20T11:08:05;4.80;99.90
37432;DHT22;23292;51.300;6.252;2022-11-20T11:10:47;4.80;99.90
37432;DHT22;23292;51.300;6.252;2022-11-20T11:13:28;4.80;99.90
37432;DHT22;23292;51.300;6.252;2022-11-20T11:15:55;4.90;99.90
37432;DHT22;23292;51.300;6.252;2022-11-20T11:18:29;4.80;99.90
37432;DHT22;23292;51.300;6.252;2022-11-20T11:21:04;5.00;99.90
37432;DHT22;23292;51.300;6.252;2022-11-20T11:23:34;5.10;99.90
37432;DHT22;23292;51.300;6.252;2022-11-20T11:26:18;5.10;99.90
37432;DHT22;23292;51.300;6.252;2022-11-20T11:29:02;5.10;99.90
37432;DHT22;23292;51.300;6.252;2022-11-20T11:31:34;5.20;99.90
37432;DHT22;23292;51.300;6.252;2022-11-20T11:34:08;5.10;99.90
37432;DHT22;23292;51.300;6.252;2022-11-20T11:36:37;5.00;99.90
37432;DHT22;23292;51.300;6.252;2022-11-20T11:39:15;5.10;99.90
37432;DHT22;23292;51.300;6.252;2022-11-20T11:41:43;5.20;99.90
37432;DHT22;23292;51.300;6.252;2022-11-20T11:44:33;5.20;99.90
37432;DHT22;23292;51.300;6.252;2022-11-20T11:47:23;5.30;99.90
37432;DHT22;23292;51.300;6.252;2022-11-20T11:50:15;5.50;99.90
37432;DHT22;23292;51.300;6.252;2022-11-20T11:55:35;5.60;99.90
37432;DHT22;23292;51.300;6.252;2022-11-20T12:03:46;5.50;99.90
37432;DHT22;23292;51.300;6.252;2022-11-20T12:06:17;5.40;99.90
37432;DHT22;23292;51.300;6.252;2022-11-20T12:08:55;5.30;99.90
37432;DHT22;23292;51.300;6.252;2022-11-20T12:12:05;5.30;99.90
37432;DHT22;23292;51.300;6.252;2022-11-20T12:14:40;5.30;99.90
37432;DHT22;23292;51.300;6.252;2022-11-20T12:17:11;5.40;99.90
37432;DHT22;23292;51.300;6.252;2022-11-20T12:19:39;5.30;99.90
37432;DHT22;23292;51.300;6.252;2022-11-20T12:30:32;5.30;99.90
37432;DHT22;23292;51.300;6.252;2022-11-20T12:33:20;5.40;99.90
37432;DHT22;23292;51.300;6.252;2022-11-20T12:38:54;5.50;99.90
37432;DHT22;23292;51.300;6.252;2022-11-20T12:41:36;5.50;99.90
37432;DHT22;23292;51.300;6.252;2022-11-20T12:44:49;5.50;99.90
37432;DHT22;23292;51.300;6.252;2022-11-20T12:48:23;5.50;99.90
37432;DHT22;23292;51.300;6.252;2022-11-20T12:51:26;5.60;99.90
37432;DHT22;23292;51.300;6.252;2022-11-20T13:07:45;5.80;99.90
37432;DHT22;23292;51.300;6.252;2022-11-20T13:10:23;5.80;99.90
37432;DHT22;23292;51.300;6.252;2022-11-20T13:13:16;5.80;99.90
37432;DHT22;23292;51.300;6.252;2022-11-20T13:15:54;5.80;99.90
37432;DHT22;23292;51.300;6.252;2022-11-20T13:18:25;5.80;99.90
37432;DHT22;23292;51.300;6.252;2022-11-20T13:20:52;5.70;99.90
37432;DHT22;23292;51.300;6.252;2022-11-20T13:23:24;5.70;99.90
37432;DHT22;23292;51.300;6.252;2022-11-20T13:26:12;5.60;99.90
37432;DHT22;23292;51.300;6.252;2022-11-20T13:28:40;5.70;99.90
37432;DHT22;23292;51.300;6.252;2022-11-20T13:31:25;5.70;99.90
37432;DHT22;23292;51.300;6.252;2022-11-20T13:33:55;5.70;99.90
37432;DHT22;23292;51.300;6.252;2022-11-20T13:36:25;5.80;99.90
37432;DHT22;23292;51.300;6.252;2022-11-20T13:38:54;5.80;99.90
37432;DHT22;23292;51.300;6.252;2022-11-20T13:41:30;5.80;99.90
37432;DHT22;23292;51.300;6.252;2022-11-20T13:46:37;5.80;99.90
37432;DHT22;23292;51.300;6.252;2022-11-20T13:49:09;5.80;99.90
37432;DHT22;23292;51.300;6.252;2022-11-20T13:51:43;5.80;99.90
37432;DHT22;23292;51.300;6.252;2022-11-20T14:00:14;5.80;99.90
37432;DHT22;23292;51.300;6.252;2022-11-20T14:02:43;5.90;99.90
37432;DHT22;23292;51.300;6.252;2022-11-20T14:05:21;5.90;99.90
37432;DHT22;23292;51.300;6.252;2022-11-20T14:07:50;5.90;99.90
37432;DHT22;23292;51.300;6.252;2022-11-20T14:10:26;6.00;99.90
37432;DHT22;23292;51.300;6.252;2022-11-20T14:12:58;6.00;99.90
37432;DHT22;23292;51.300;6.252;2022-11-20T14:15:33;6.00;99.90
37432;DHT22;23292;51.300;6.252;2022-11-20T14:18:10;6.00;99.90
37432;DHT22;23292;51.300;6.252;2022-11-20T14:20:38;6.00;99.90
37432;DHT22;23292;51.300;6.252;2022-11-20T14:23:10;6.00;99.90
37432;DHT22;23292;51.300;6.252;2022-11-20T14:25:41;5.90;99.90
37432;DHT22;23292;51.300;6.252;2022-11-20T14:28:20;6.00;99.90
37432;DHT22;23292;51.300;6.252;2022-11-20T14:30:49;6.00;99.90
37432;DHT22;23292;51.300;6.252;2022-11-20T14:33:17;6.00;99.90
37432;DHT22;23292;51.300;6.252;2022-11-20T14:35:52;6.00;99.90
37432;DHT22;23292;51.300;6.252;2022-11-20T14:38:27;5.90;99.90
37432;DHT22;23292;51.300;6.252;2022-11-20T14:40:54;5.90;99.90
37432;DHT22;23292;51.300;6.252;2022-11-20T14:43:31;5.90;99.90
37432;DHT22;23292;51.300;6.252;2022-11-20T14:46:02;5.90;99.90
37432;DHT22;23292;51.300;6.252;2022-11-20T14:48:32;5.80;99.90
37432;DHT22;23292;51.300;6.252;2022-11-20T14:51:00;5.80;99.90
37432;DHT22;23292;51.300;6.252;2022-11-20T14:53:27;5.80;99.90
37432;DHT22;23292;51.300;6.252;2022-11-20T14:55:59;5.80;99.90
37432;DHT22;23292;51.300;6.252;2022-11-20T14:58:31;5.80;99.90
37432;DHT22;23292;51.300;6.252;2022-11-20T15:01:03;5.80;99.90
37432;DHT22;23292;51.300;6.252;2022-11-20T15:03:38;5.80;99.90
37432;DHT22;23292;51.300;6.252;2022-11-20T15:06:07;5.70;99.90
37432;DHT22;23292;51.300;6.252;2022-11-20T15:08:34;5.80;99.90
37432;DHT22;23292;51.300;6.252;2022-11-20T15:11:02;5.70;99.90
37432;DHT22;23292;51.300;6.252;2022-11-20T15:13:34;5.70;99.90
37432;DHT22;23292;51.300;6.252;2022-11-20T15:16:03;5.70;99.90
37432;DHT22;23292;51.300;6.252;2022-11-20T15:18:39;5.60;99.90
37432;DHT22;23292;51.300;6.252;2022-11-20T15:21:13;5.70;99.90
37432;DHT22;23292;51.300;6.252;2022-11-20T15:23:40;5.60;99.90
37432;DHT22;23292;51.300;6.252;2022-11-20T15:26:08;5.60;99.90
37432;DHT22;23292;51.300;6.252;2022-11-20T15:28:43;5.60;99.90
37432;DHT22;23292;51.300;6.252;2022-11-20T15:31:15;5.60;99.90
37432;DHT22;23292;51.300;6.252;2022-11-20T15:33:42;5.60;99.90
37432;DHT22;23292;51.300;6.252;2022-11-20T15:36:09;5.60;99.90
37432;DHT22;23292;51.300;6.252;2022-11-20T15:38:36;5.60;99.90
37432;DHT22;23292;51.300;6.252;2022-11-20T15:41:03;5.60;99.90
37432;DHT22;23292;51.300;6.252;2022-11-20T15:43:30;5.60;99.90
37432;DHT22;23292;51.300;6.252;2022-11-20T15:46:00;5.60;99.90
37432;DHT22;23292;51.300;6.252;2022-11-20T15:48:33;5.60;99.90
37432;DHT22;23292;51.300;6.252;2022-11-20T15:53:41;5.50;99.90
37432;DHT22;23292;51.300;6.252;2022-11-20T15:56:12;5.60;99.90
37432;DHT22;23292;51.300;6.252;2022-11-20T15:58:39;5.50;99.90
37432;DHT22;23292;51.300;6.252;2022-11-20T16:01:17;5.60;99.90
37432;DHT22;23292;51.300;6.252;2022-11-20T16:03:45;5.50;99.90
37432;DHT22;23292;51.300;6.252;2022-11-20T16:06:11;5.60;99.90
37432;DHT22;23292;51.300;6.252;2022-11-20T16:08:38;5.60;99.90
37432;DHT22;23292;51.300;6.252;2022-11-20T16:11:05;5.60;99.90
37432;DHT22;23292;51.300;6.252;2022-11-20T16:13:34;5.60;99.90
37432;DHT22;23292;51.300;6.252;2022-11-20T16:16:22;5.50;99.90
37432;DHT22;23292;51.300;6.252;2022-11-20T16:18:52;5.50;99.90
37432;DHT22;23292;51.300;6.252;2022-11-20T16:21:19;5.60;99.90
37432;DHT22;23292;51.300;6.252;2022-11-20T16:23:46;5.70;99.90
37432;DHT22;23292;51.300;6.252;2022-11-20T16:26:15;5.70;99.90
37432;DHT22;23292;51.300;6.252;2022-11-20T16:28:43;5.60;99.90
37432;DHT22;23292;51.300;6.252;2022-11-20T16:31:15;5.60;99.90
37432;DHT22;23292;51.300;6.252;2022-11-20T16:33:42;5.70;99.90
37432;DHT22;23292;51.300;6.252;2022-11-20T16:36:11;5.70;99.90
37432;DHT22;23292;51.300;6.252;2022-11-20T16:38:38;5.70;99.90
37432;DHT22;23292;51.300;6.252;2022-11-20T16:41:06;5.70;99.90
37432;DHT22;23292;51.300;6.252;2022-11-20T16:43:33;5.70;99.90
37432;DHT22;23292;51.300;6.252;2022-11-20T16:46:03;5.70;99.90
37432;DHT22;23292;51.300;6.252;2022-11-20T16:48:30;5.70;99.90
37432;DHT22;23292;51.300;6.252;2022-11-20T16:50:56;5.80;99.90
37432;DHT22;23292;51.300;6.252;2022-11-20T16:53:23;5.70;99.90
37432;DHT22;23292;51.300;6.252;2022-11-20T16:55:50;5.80;99.90
37432;DHT22;23292;51.300;6.252;2022-11-20T16:58:16;5.80;99.90
37432;DHT22;23292;51.300;6.252;2022-11-20T17:00:43;5.80;99.90
37432;DHT22;23292;51.300;6.252;2022-11-20T17:03:17;5.80;99.90
37432;DHT22;23292;51.300;6.252;2022-11-20T17:05:44;5.80;99.90
37432;DHT22;23292;51.300;6.252;2022-11-20T17:08:11;5.90;99.90
37432;DHT22;23292;51.300;6.252;2022-11-20T17:10:37;5.90;99.90
37432;DHT22;23292;51.300;6.252;2022-11-20T17:13:04;5.90;99.90
37432;DHT22;23292;51.300;6.252;2022-11-20T17:15:32;5.90;99.90
37432;DHT22;23292;51.300;6.252;2022-11-20T17:17:59;5.90;99.90
37432;DHT22;23292;51.300;6.252;2022-11-20T17:20:28;5.90;99.90
37432;DHT22;23292;51.300;6.252;2022-11-20T17:22:56;6.00;99.90
37432;DHT22;23292;51.300;6.252;2022-11-20T17:25:23;5.90;99.90
37432;DHT22;23292;51.300;6.252;2022-11-20T17:27:49;5.90;99.90
37432;DHT22;23292;51.300;6.252;2022-11-20T17:30:16;6.00;99.90